x

West Bermuda - 240 Nm West Of Bermuda (41048) Wave Buoy

10:50am - Sat 28th May 2016 All times are UTC.

  • Sig Wave height 4.9ft
  • Swell Direction
  • Peak Period 8s
  • Average Period 5s
  • Wind
    18mph, 22mph gusts
  • Sea Temp 75°f
  • Air Temp 76°f
  • Sea Pressure 1021.4mb

More Historic Weather Station data

Upgrade to MSW Pro to gain access to the past 30 days of data for over 8000 Wavebouys and Weather Stations around the globe.

Join Pro

Comparision Forecast

View Surf forecast
   
Sat 05/28 10:50am 5ft 8s 5s 18 22 mph 1021.4mb 75f 76f
9:50am 4.5ft 7s 5s 18 20 mph 1021mb 75f 76f
8:50am 5ft 7s 5s 18 22 mph 1020.4mb 75f 75f
7:50am 5ft 7s 5s 16 18 mph 1020mb 75f 74f
6:50am 5ft 8s 6s 18 20 mph 1019.9mb 75f 75f
5:50am 5ft 8s 5s 16 18 mph 1020.1mb 75f 75f
4:50am 5ft 7s 5s 16 18 mph 1020.3mb 75f 76f
3:50am 5ft 6s 5s 16 20 mph 1020.5mb 75f 75f
2:50am 5ft 7s 5s 18 20 mph 1020.5mb 76f 75f
1:50am 5ft 6s 5s 18 22 mph 1020mb 76f 75f
12:50am 5.5ft 8s 5s 20 25 mph 1019.8mb 76f 76f
Fri 05/27 11:50pm 5ft 6s 5s 22 25 mph 1019.3mb 76f 76f
10:50pm 5.5ft 5s 5s 22 27 mph 1019.4mb 76f 76f
9:50pm 4.5ft 6s 5s 22 25 mph 1019.3mb 76f 76f
8:50pm 5ft 5s 5s 20 22 mph 1019.5mb 76f 75f
7:50pm 5.5ft 7s 5s 16 20 mph 1019.5mb 76f 76f
6:50pm 5ft 5s 5s 16 18 mph 1019.7mb 76f 76f
5:50pm 5ft 5s 5s 20 25 mph 1020mb 76f 76f
4:50pm 4.5ft 8s 5s 20 25 mph 1020.5mb 76f 76f
3:50pm 4.5ft 8s 5s 20 25 mph 1020.9mb 76f 76f
2:50pm 4.5ft 5s 5s 18 22 mph 1020.9mb 76f 76f
1:50pm 4.5ft 7s 5s 18 22 mph 1020.9mb 76f 76f
12:50pm 4.5ft 8s 5s 18 20 mph 1020.8mb 76f 76f
11:50am 4.5ft 8s 5s 18 20 mph 1020.3mb 76f 75f
10:50am 4.5ft 8s 6s 16 20 mph 1020.1mb 76f 75f
9:50am 4.5ft 7s 5s 16 18 mph 1020mb 76f 75f
8:50am 5ft 8s 6s 13 16 mph 1020mb 76f 75f
7:50am 4.5ft 8s 5s 13 16 mph 1019.8mb 76f 75f
6:50am 5ft 7s 5s 13 16 mph 1019.8mb 76f 75f
5:50am 5ft 8s 5s 16 18 mph 1020mb 76f 75f
4:50am 4.5ft 8s 5s 16 20 mph 1020mb 76f 75f
3:50am 4.5ft 6s 5s 18 20 mph 1020.1mb 76f 75f
2:50am 4.5ft 5s 5s 16 20 mph 1020.9mb 76f 75f
1:50am 4.5ft 7s 5s 16 18 mph 1021.2mb 76f 74f
12:50am 4.5ft 6s 5s 16 20 mph 1020.9mb 76f 73f
Thu 05/26 11:50pm 4.5ft 6s 5s 20 22 mph 1020.4mb 76f 75f
10:50pm 4.5ft 5s 5s 18 20 mph 1020.5mb 76f 75f
9:50pm 4ft 8s 5s 18 20 mph 1020.5mb 76f 75f
8:50pm 4.5ft 5s 5s 18 20 mph 1020.8mb 75f 74f
7:50pm 4.5ft 5s 5s 20 22 mph 1021.1mb 75f 74f
6:50pm 4.5ft 5s 5s 18 20 mph 1021.3mb 75f 74f
5:50pm 4.5ft 5s 5s 18 22 mph 1021.7mb 75f 74f
4:50pm 4.5ft 5s 5s 18 22 mph 1022mb 75f 74f
3:50pm 4.5ft 6s 5s 18 22 mph 1022.2mb 75f 74f
2:50pm 4.5ft 8s 5s 18 20 mph 1022.4mb 75f 74f
1:50pm 4ft 7s 5s 18 20 mph 1022.7mb 75f 74f
12:50pm 4ft 6s 5s 18 20 mph 1022.6mb 75f 74f
11:50am 4ft 8s 5s 18 20 mph 1022.4mb 75f 74f
10:50am 3.5ft 5s 5s 13 18 mph 1022.2mb 75f 74f
9:50am 3.5ft 8s 5s 13 16 mph 1021.9mb 75f 73f
8:50am 3.5ft 7s 5s 13 16 mph 1021.8mb 75f 73f
7:50am 3.5ft 7s 5s 13 16 mph 1021.7mb 76f 73f
6:50am 3.5ft 7s 5s 13 16 mph 1021.9mb 75f 74f
5:50am 3.5ft 7s 5s 13 16 mph 1022.3mb 76f 74f
4:50am 3.5ft 7s 5s 13 16 mph 1022.7mb 76f 74f
3:50am 3.5ft 7s 5s 13 16 mph 1022.7mb 76f 74f
2:50am 3.5ft 8s 5s 13 16 mph 1023.1mb 76f 74f
1:50am 3.5ft 8s 5s 13 16 mph 1023.5mb 76f 74f
12:50am 3.5ft 7s 5s 13 16 mph 1022.9mb 76f 74f
Wed 05/25 11:50pm 3.5ft 7s 6s 13 16 mph 1022.7mb 76f 74f
10:50pm 3.5ft 9s 5s 13 16 mph 1022.4mb 76f 74f
9:50pm 3.5ft 6s 5s 13 16 mph 1022.2mb 76f 74f
8:50pm 3.5ft 7s 5s 13 16 mph 1022.2mb 76f 74f
7:50pm 4ft 8s 6s 13 16 mph 1022.4mb 76f 73f
6:50pm 4.5ft 7s 6s 11 13 mph 1022.8mb 76f 73f
5:50pm 4ft 8s 6s 11 13 mph 1023.3mb 76f 73f
4:50pm 4.5ft 7s 6s 11 13 mph 1023.8mb 76f 73f
3:50pm 4ft 7s 6s 11 13 mph 1023.8mb 76f 73f
2:50pm 4.5ft 7s 6s 11 13 mph 1023.8mb 76f 73f
1:50pm 4.5ft 7s 6s 11 13 mph 1023.5mb 75f 73f
12:50pm 4ft 8s 6s 13 16 mph 1023.5mb 75f 73f
11:50am 4ft 8s 6s 11 13 mph 1022.8mb 75f 73f
10:50am 4.5ft 7s 6s 11
mph
1022.4mb 75f 73f
9:50am 4ft 7s 6s 11 13 mph 1021.9mb 75f 73f
8:50am 4ft 8s 6s 11 13 mph 1021.8mb 76f 73f
7:50am 4.5ft 7s 7s 9 11 mph 1021.5mb 75f 73f
6:50am 4.5ft 8s 7s 7 9 mph 1021.2mb 75f 74f
5:50am 4.5ft 7s 6s 7 9 mph 1021.3mb 75f 74f
4:50am 4ft 7s 6s 4
mph
1021.5mb 75f 74f
3:50am 3.5ft 8s 6s 4 7 mph 1021.7mb 75f 74f
2:50am 4ft 7s 6s  -  2 mph 1021.9mb 76f 75f
1:50am 4.5ft 7s 6s 2 4 mph 1021.5mb 76f 75f
12:50am 4ft 8s 6s 4 7 mph 1020.8mb 76f 75f
Tue 05/24 11:50pm 4.5ft 9s 6s 4 7 mph 1020.5mb 76f 75f
10:50pm 4.5ft 8s 6s 7 9 mph 1020.1mb 76f 75f
9:50pm 4.5ft 8s 6s 2 4 mph 1019.7mb 77f 76f
8:50pm 4.5ft 6s 6s 4 7 mph 1019.9mb 77f 76f
7:50pm 5ft 7s 6s 7 9 mph 1019.7mb 77f 76f
6:50pm 5ft 6s 6s 7 9 mph 1020.1mb 78f 76f
5:50pm 5.5ft 6s 6s 4 7 mph 1019.8mb 78f 75f
4:50pm 5ft 7s 6s 4 7 mph 1019.6mb 78f 75f
3:50pm 5ft 8s 6s 4 7 mph 1019.7mb 77f 74f
2:50pm 5ft 6s 6s 4 7 mph 1019.4mb 76f 74f
1:50pm 5ft 8s 6s 2 4 mph 1019.1mb 76f 74f
12:50pm 4.5ft 7s 6s 2 4 mph 1018.8mb 75f 74f